sensor_id;sensor_type;location;lat;lon;timestamp;temperature;humidity
10249;DHT22;5169;50.560;9.714;2023-07-31T00:00:11;16.60;99.90
10249;DHT22;5169;50.560;9.714;2023-07-31T00:02:39;16.50;99.90
10249;DHT22;5169;50.560;9.714;2023-07-31T00:05:05;16.50;99.90
10249;DHT22;5169;50.560;9.714;2023-07-31T00:07:32;16.60;99.90
10249;DHT22;5169;50.560;9.714;2023-07-31T00:09:58;16.60;99.90
10249;DHT22;5169;50.560;9.714;2023-07-31T00:12:23;16.60;99.90
10249;DHT22;5169;50.560;9.714;2023-07-31T00:14:54;16.60;99.90
10249;DHT22;5169;50.560;9.714;2023-07-31T00:17:20;16.60;99.90
10249;DHT22;5169;50.560;9.714;2023-07-31T00:19:46;16.50;99.90
10249;DHT22;5169;50.560;9.714;2023-07-31T00:22:12;16.60;99.90
10249;DHT22;5169;50.560;9.714;2023-07-31T00:24:40;16.60;99.90
10249;DHT22;5169;50.560;9.714;2023-07-31T00:27:08;16.60;99.90
10249;DHT22;5169;50.560;9.714;2023-07-31T00:29:34;16.60;99.90
10249;DHT22;5169;50.560;9.714;2023-07-31T00:32:05;16.70;99.90
10249;DHT22;5169;50.560;9.714;2023-07-31T00:34:30;16.80;99.90
10249;DHT22;5169;50.560;9.714;2023-07-31T00:36:58;16.80;99.90
10249;DHT22;5169;50.560;9.714;2023-07-31T00:39:23;16.80;99.90
10249;DHT22;5169;50.560;9.714;2023-07-31T00:41:49;16.80;99.90
10249;DHT22;5169;50.560;9.714;2023-07-31T00:44:17;16.80;99.90
10249;DHT22;5169;50.560;9.714;2023-07-31T00:46:44;16.70;99.90
10249;DHT22;5169;50.560;9.714;2023-07-31T00:49:10;16.70;99.90
10249;DHT22;5169;50.560;9.714;2023-07-31T00:51:36;16.70;99.90
10249;DHT22;5169;50.560;9.714;2023-07-31T00:54:09;16.70;99.90
10249;DHT22;5169;50.560;9.714;2023-07-31T00:56:34;16.60;99.90
10249;DHT22;5169;50.560;9.714;2023-07-31T00:59:11;16.60;99.90
10249;DHT22;5169;50.560;9.714;2023-07-31T01:01:36;16.50;99.90
10249;DHT22;5169;50.560;9.714;2023-07-31T01:04:08;16.50;99.90
10249;DHT22;5169;50.560;9.714;2023-07-31T01:12:21;16.30;99.90
10249;DHT22;5169;50.560;9.714;2023-07-31T01:15:22;16.10;99.90
10249;DHT22;5169;50.560;9.714;2023-07-31T01:17:48;16.20;99.90
10249;DHT22;5169;50.560;9.714;2023-07-31T01:20:22;16.10;99.90
10249;DHT22;5169;50.560;9.714;2023-07-31T01:23:22;16.00;99.90
10249;DHT22;5169;50.560;9.714;2023-07-31T01:28:46;15.90;99.90
10249;DHT22;5169;50.560;9.714;2023-07-31T01:31:17;15.90;99.90
10249;DHT22;5169;50.560;9.714;2023-07-31T01:33:45;15.90;99.90
10249;DHT22;5169;50.560;9.714;2023-07-31T01:36:11;15.90;99.90
10249;DHT22;5169;50.560;9.714;2023-07-31T01:38:37;15.80;99.90
10249;DHT22;5169;50.560;9.714;2023-07-31T01:41:03;15.80;99.90
10249;DHT22;5169;50.560;9.714;2023-07-31T01:43:36;15.80;99.90
10249;DHT22;5169;50.560;9.714;2023-07-31T01:46:02;15.80;99.90
10249;DHT22;5169;50.560;9.714;2023-07-31T01:48:36;15.80;99.90
10249;DHT22;5169;50.560;9.714;2023-07-31T01:51:02;15.80;99.90
10249;DHT22;5169;50.560;9.714;2023-07-31T01:53:34;15.80;99.90
10249;DHT22;5169;50.560;9.714;2023-07-31T01:56:00;15.80;99.90
10249;DHT22;5169;50.560;9.714;2023-07-31T01:58:26;15.70;99.90
10249;DHT22;5169;50.560;9.714;2023-07-31T02:00:51;15.70;99.90
10249;DHT22;5169;50.560;9.714;2023-07-31T02:03:21;15.80;99.90
10249;DHT22;5169;50.560;9.714;2023-07-31T02:05:48;15.70;99.90
10249;DHT22;5169;50.560;9.714;2023-07-31T02:08:15;15.80;99.90
10249;DHT22;5169;50.560;9.714;2023-07-31T02:10:44;15.80;99.90
10249;DHT22;5169;50.560;9.714;2023-07-31T02:13:12;15.70;99.90
10249;DHT22;5169;50.560;9.714;2023-07-31T02:15:37;15.80;99.90
10249;DHT22;5169;50.560;9.714;2023-07-31T02:18:05;15.70;99.90
10249;DHT22;5169;50.560;9.714;2023-07-31T02:20:34;15.70;99.90
10249;DHT22;5169;50.560;9.714;2023-07-31T02:23:00;15.70;99.90
10249;DHT22;5169;50.560;9.714;2023-07-31T02:25:26;15.70;99.90
10249;DHT22;5169;50.560;9.714;2023-07-31T02:27:52;15.80;99.90
10249;DHT22;5169;50.560;9.714;2023-07-31T02:30:20;15.80;99.90
10249;DHT22;5169;50.560;9.714;2023-07-31T02:32:48;15.70;99.90
10249;DHT22;5169;50.560;9.714;2023-07-31T02:35:13;15.60;99.90
10249;DHT22;5169;50.560;9.714;2023-07-31T02:37:44;15.70;99.90
10249;DHT22;5169;50.560;9.714;2023-07-31T02:40:10;15.60;99.90
10249;DHT22;5169;50.560;9.714;2023-07-31T02:42:38;15.80;99.90
10249;DHT22;5169;50.560;9.714;2023-07-31T02:45:04;15.80;99.90
10249;DHT22;5169;50.560;9.714;2023-07-31T02:47:38;15.80;99.90
10249;DHT22;5169;50.560;9.714;2023-07-31T02:50:09;15.80;99.90
10249;DHT22;5169;50.560;9.714;2023-07-31T02:52:37;15.70;99.90
10249;DHT22;5169;50.560;9.714;2023-07-31T02:55:03;15.70;99.90
10249;DHT22;5169;50.560;9.714;2023-07-31T02:57:29;15.60;99.90
10249;DHT22;5169;50.560;9.714;2023-07-31T02:59:57;15.70;99.90
10249;DHT22;5169;50.560;9.714;2023-07-31T03:02:23;15.70;99.90
10249;DHT22;5169;50.560;9.714;2023-07-31T03:04:53;15.70;99.90
10249;DHT22;5169;50.560;9.714;2023-07-31T03:07:22;15.70;99.90
10249;DHT22;5169;50.560;9.714;2023-07-31T03:09:47;15.70;99.90
10249;DHT22;5169;50.560;9.714;2023-07-31T03:12:15;15.70;99.90
10249;DHT22;5169;50.560;9.714;2023-07-31T03:14:41;15.80;99.90
10249;DHT22;5169;50.560;9.714;2023-07-31T03:17:13;15.80;99.90
10249;DHT22;5169;50.560;9.714;2023-07-31T03:19:39;15.80;99.90
10249;DHT22;5169;50.560;9.714;2023-07-31T03:22:05;15.80;99.90
10249;DHT22;5169;50.560;9.714;2023-07-31T03:24:30;15.80;99.90
10249;DHT22;5169;50.560;9.714;2023-07-31T03:26:59;15.90;99.90
10249;DHT22;5169;50.560;9.714;2023-07-31T03:29:27;15.80;99.90
10249;DHT22;5169;50.560;9.714;2023-07-31T03:31:53;15.80;99.90
10249;DHT22;5169;50.560;9.714;2023-07-31T03:34:23;15.80;99.90
10249;DHT22;5169;50.560;9.714;2023-07-31T03:36:48;15.80;99.90
10249;DHT22;5169;50.560;9.714;2023-07-31T03:39:14;15.80;99.90
10249;DHT22;5169;50.560;9.714;2023-07-31T03:41:39;15.80;99.90
10249;DHT22;5169;50.560;9.714;2023-07-31T03:44:05;15.70;99.90
10249;DHT22;5169;50.560;9.714;2023-07-31T03:46:35;15.70;99.90
10249;DHT22;5169;50.560;9.714;2023-07-31T03:49:01;15.80;99.90
10249;DHT22;5169;50.560;9.714;2023-07-31T03:51:27;15.80;99.90
10249;DHT22;5169;50.560;9.714;2023-07-31T03:53:53;15.80;99.90
10249;DHT22;5169;50.560;9.714;2023-07-31T03:56:18;15.80;99.90
10249;DHT22;5169;50.560;9.714;2023-07-31T03:58:48;15.90;99.90
10249;DHT22;5169;50.560;9.714;2023-07-31T04:01:16;15.80;99.90
10249;DHT22;5169;50.560;9.714;2023-07-31T04:03:43;15.80;99.90
10249;DHT22;5169;50.560;9.714;2023-07-31T04:06:12;15.80;99.90
10249;DHT22;5169;50.560;9.714;2023-07-31T04:08:40;15.80;99.90
10249;DHT22;5169;50.560;9.714;2023-07-31T04:11:05;15.80;99.90
10249;DHT22;5169;50.560;9.714;2023-07-31T04:13:36;15.90;99.90
10249;DHT22;5169;50.560;9.714;2023-07-31T04:16:01;15.90;99.90
10249;DHT22;5169;50.560;9.714;2023-07-31T04:18:27;15.90;99.90
10249;DHT22;5169;50.560;9.714;2023-07-31T04:20:56;15.90;99.90
10249;DHT22;5169;50.560;9.714;2023-07-31T04:23:38;15.80;99.90
10249;DHT22;5169;50.560;9.714;2023-07-31T04:26:06;15.90;99.90
10249;DHT22;5169;50.560;9.714;2023-07-31T04:28:37;15.90;99.90
10249;DHT22;5169;50.560;9.714;2023-07-31T04:31:03;16.00;99.90
10249;DHT22;5169;50.560;9.714;2023-07-31T04:33:28;15.90;99.90
10249;DHT22;5169;50.560;9.714;2023-07-31T04:35:54;16.00;99.90
10249;DHT22;5169;50.560;9.714;2023-07-31T04:38:21;16.00;99.90
10249;DHT22;5169;50.560;9.714;2023-07-31T04:40:49;16.10;99.90
10249;DHT22;5169;50.560;9.714;2023-07-31T04:43:15;16.00;99.90
10249;DHT22;5169;50.560;9.714;2023-07-31T04:45:44;16.00;99.90
10249;DHT22;5169;50.560;9.714;2023-07-31T04:48:15;16.00;99.90
10249;DHT22;5169;50.560;9.714;2023-07-31T04:50:42;16.10;99.90
10249;DHT22;5169;50.560;9.714;2023-07-31T04:53:07;16.10;99.90
10249;DHT22;5169;50.560;9.714;2023-07-31T04:55:33;16.10;99.90
10249;DHT22;5169;50.560;9.714;2023-07-31T04:57:59;16.10;99.90
10249;DHT22;5169;50.560;9.714;2023-07-31T05:00:24;16.20;99.90
10249;DHT22;5169;50.560;9.714;2023-07-31T05:02:57;16.20;99.90
10249;DHT22;5169;50.560;9.714;2023-07-31T05:05:23;16.20;99.90
10249;DHT22;5169;50.560;9.714;2023-07-31T05:07:48;16.30;99.90
10249;DHT22;5169;50.560;9.714;2023-07-31T05:10:17;16.30;99.90
10249;DHT22;5169;50.560;9.714;2023-07-31T05:12:42;16.30;99.90
10249;DHT22;5169;50.560;9.714;2023-07-31T05:15:08;16.20;99.90
10249;DHT22;5169;50.560;9.714;2023-07-31T05:17:34;16.30;99.90
10249;DHT22;5169;50.560;9.714;2023-07-31T05:20:00;16.30;99.90
10249;DHT22;5169;50.560;9.714;2023-07-31T05:22:33;16.30;99.90
10249;DHT22;5169;50.560;9.714;2023-07-31T05:25:00;16.40;99.90
10249;DHT22;5169;50.560;9.714;2023-07-31T05:27:33;16.30;99.90
10249;DHT22;5169;50.560;9.714;2023-07-31T05:29:59;16.30;99.90
10249;DHT22;5169;50.560;9.714;2023-07-31T05:32:24;16.40;99.90
10249;DHT22;5169;50.560;9.714;2023-07-31T05:34:55;16.40;99.90
10249;DHT22;5169;50.560;9.714;2023-07-31T05:37:24;16.40;99.90
10249;DHT22;5169;50.560;9.714;2023-07-31T05:39:49;16.40;99.90
10249;DHT22;5169;50.560;9.714;2023-07-31T05:42:17;16.40;99.90
10249;DHT22;5169;50.560;9.714;2023-07-31T05:44:45;16.40;99.90
10249;DHT22;5169;50.560;9.714;2023-07-31T05:47:12;16.40;99.90
10249;DHT22;5169;50.560;9.714;2023-07-31T05:49:42;16.40;99.90
10249;DHT22;5169;50.560;9.714;2023-07-31T05:52:08;16.40;99.90
10249;DHT22;5169;50.560;9.714;2023-07-31T05:54:33;16.40;99.90
10249;DHT22;5169;50.560;9.714;2023-07-31T05:57:01;16.30;99.90
10249;DHT22;5169;50.560;9.714;2023-07-31T05:59:30;16.30;99.90
10249;DHT22;5169;50.560;9.714;2023-07-31T06:01:58;16.40;99.90
10249;DHT22;5169;50.560;9.714;2023-07-31T06:04:24;16.40;99.90
10249;DHT22;5169;50.560;9.714;2023-07-31T06:06:54;16.40;99.90
10249;DHT22;5169;50.560;9.714;2023-07-31T06:09:22;16.50;99.90
10249;DHT22;5169;50.560;9.714;2023-07-31T06:11:48;16.50;99.90
10249;DHT22;5169;50.560;9.714;2023-07-31T06:14:13;16.40;99.90
10249;DHT22;5169;50.560;9.714;2023-07-31T06:16:39;16.40;99.90
10249;DHT22;5169;50.560;9.714;2023-07-31T06:19:07;16.40;99.90
10249;DHT22;5169;50.560;9.714;2023-07-31T06:21:33;16.40;99.90
10249;DHT22;5169;50.560;9.714;2023-07-31T06:23:58;16.40;99.90
10249;DHT22;5169;50.560;9.714;2023-07-31T06:26:24;16.40;99.90
10249;DHT22;5169;50.560;9.714;2023-07-31T06:28:50;16.30;99.90
10249;DHT22;5169;50.560;9.714;2023-07-31T06:31:15;16.40;99.90
10249;DHT22;5169;50.560;9.714;2023-07-31T06:33:43;16.40;99.90
10249;DHT22;5169;50.560;9.714;2023-07-31T06:36:11;16.50;99.90
10249;DHT22;5169;50.560;9.714;2023-07-31T06:38:37;16.60;99.90
10249;DHT22;5169;50.560;9.714;2023-07-31T06:41:05;16.60;99.90
10249;DHT22;5169;50.560;9.714;2023-07-31T06:43:31;16.60;99.90
10249;DHT22;5169;50.560;9.714;2023-07-31T06:46:09;16.60;99.90
10249;DHT22;5169;50.560;9.714;2023-07-31T06:48:35;16.70;99.90
10249;DHT22;5169;50.560;9.714;2023-07-31T06:51:04;16.80;99.90
10249;DHT22;5169;50.560;9.714;2023-07-31T06:53:30;16.80;99.90
10249;DHT22;5169;50.560;9.714;2023-07-31T06:55:55;16.70;99.90
10249;DHT22;5169;50.560;9.714;2023-07-31T06:58:21;16.70;99.90
10249;DHT22;5169;50.560;9.714;2023-07-31T07:00:46;16.70;99.90
10249;DHT22;5169;50.560;9.714;2023-07-31T07:03:14;16.60;99.90
10249;DHT22;5169;50.560;9.714;2023-07-31T07:05:44;16.60;99.90
10249;DHT22;5169;50.560;9.714;2023-07-31T07:08:10;16.60;99.90
10249;DHT22;5169;50.560;9.714;2023-07-31T07:10:38;16.70;99.90
10249;DHT22;5169;50.560;9.714;2023-07-31T07:13:03;16.70;99.90
10249;DHT22;5169;50.560;9.714;2023-07-31T07:15:31;16.80;99.90
10249;DHT22;5169;50.560;9.714;2023-07-31T07:17:56;16.70;99.90
10249;DHT22;5169;50.560;9.714;2023-07-31T07:20:22;16.70;99.90
10249;DHT22;5169;50.560;9.714;2023-07-31T07:22:47;16.70;99.90
10249;DHT22;5169;50.560;9.714;2023-07-31T07:25:13;16.80;99.90
10249;DHT22;5169;50.560;9.714;2023-07-31T07:27:39;16.70;99.90
10249;DHT22;5169;50.560;9.714;2023-07-31T07:30:05;16.80;99.90
10249;DHT22;5169;50.560;9.714;2023-07-31T07:32:30;17.00;99.90
10249;DHT22;5169;50.560;9.714;2023-07-31T07:34:56;17.20;99.90
10249;DHT22;5169;50.560;9.714;2023-07-31T07:37:22;17.50;99.90
10249;DHT22;5169;50.560;9.714;2023-07-31T07:39:47;17.70;99.90
10249;DHT22;5169;50.560;9.714;2023-07-31T07:42:13;17.90;99.90
10249;DHT22;5169;50.560;9.714;2023-07-31T07:44:40;18.00;99.90
10249;DHT22;5169;50.560;9.714;2023-07-31T07:47:08;18.10;99.90
10249;DHT22;5169;50.560;9.714;2023-07-31T07:49:34;18.10;99.90
10249;DHT22;5169;50.560;9.714;2023-07-31T07:52:01;18.10;99.90
10249;DHT22;5169;50.560;9.714;2023-07-31T07:54:27;18.40;99.90
10249;DHT22;5169;50.560;9.714;2023-07-31T07:56:52;18.90;99.90
10249;DHT22;5169;50.560;9.714;2023-07-31T07:59:20;19.20;99.90
10249;DHT22;5169;50.560;9.714;2023-07-31T08:01:46;19.20;99.90
10249;DHT22;5169;50.560;9.714;2023-07-31T08:04:11;19.10;99.90
10249;DHT22;5169;50.560;9.714;2023-07-31T08:06:39;19.10;99.90
10249;DHT22;5169;50.560;9.714;2023-07-31T08:09:05;19.00;99.90
10249;DHT22;5169;50.560;9.714;2023-07-31T08:11:32;19.00;99.90
10249;DHT22;5169;50.560;9.714;2023-07-31T08:13:58;19.00;99.90
10249;DHT22;5169;50.560;9.714;2023-07-31T08:16:23;19.00;99.90
10249;DHT22;5169;50.560;9.714;2023-07-31T08:18:51;18.90;99.90
10249;DHT22;5169;50.560;9.714;2023-07-31T08:21:19;18.80;99.90
10249;DHT22;5169;50.560;9.714;2023-07-31T08:23:44;18.80;99.90
10249;DHT22;5169;50.560;9.714;2023-07-31T08:26:19;18.80;99.90
10249;DHT22;5169;50.560;9.714;2023-07-31T08:28:46;18.80;99.90
10249;DHT22;5169;50.560;9.714;2023-07-31T08:31:11;18.70;99.90
10249;DHT22;5169;50.560;9.714;2023-07-31T08:33:40;18.60;99.90
10249;DHT22;5169;50.560;9.714;2023-07-31T08:36:06;18.60;99.90
10249;DHT22;5169;50.560;9.714;2023-07-31T08:38:32;18.70;99.90
10249;DHT22;5169;50.560;9.714;2023-07-31T08:40:58;18.70;99.90
10249;DHT22;5169;50.560;9.714;2023-07-31T08:43:27;18.70;99.90
10249;DHT22;5169;50.560;9.714;2023-07-31T08:45:53;18.60;99.90
10249;DHT22;5169;50.560;9.714;2023-07-31T08:48:20;18.60;99.90
10249;DHT22;5169;50.560;9.714;2023-07-31T08:50:46;18.70;99.90
10249;DHT22;5169;50.560;9.714;2023-07-31T08:53:14;18.50;99.90
10249;DHT22;5169;50.560;9.714;2023-07-31T08:55:40;18.40;99.90
10249;DHT22;5169;50.560;9.714;2023-07-31T08:58:08;18.30;99.90
10249;DHT22;5169;50.560;9.714;2023-07-31T09:00:35;18.20;99.90
10249;DHT22;5169;50.560;9.714;2023-07-31T09:03:15;18.10;99.90
10249;DHT22;5169;50.560;9.714;2023-07-31T09:05:46;18.20;99.90
10249;DHT22;5169;50.560;9.714;2023-07-31T09:08:18;18.20;99.90
10249;DHT22;5169;50.560;9.714;2023-07-31T09:10:47;18.30;99.90
10249;DHT22;5169;50.560;9.714;2023-07-31T09:13:16;18.40;99.90
10249;DHT22;5169;50.560;9.714;2023-07-31T09:15:45;18.30;99.90
10249;DHT22;5169;50.560;9.714;2023-07-31T09:18:13;18.40;99.90
10249;DHT22;5169;50.560;9.714;2023-07-31T09:21:00;18.40;99.90
10249;DHT22;5169;50.560;9.714;2023-07-31T09:23:26;18.70;99.90
10249;DHT22;5169;50.560;9.714;2023-07-31T09:26:04;18.90;99.90
10249;DHT22;5169;50.560;9.714;2023-07-31T09:28:31;19.20;99.90
10249;DHT22;5169;50.560;9.714;2023-07-31T09:30:56;19.50;99.90
10249;DHT22;5169;50.560;9.714;2023-07-31T09:33:22;19.80;99.90
10249;DHT22;5169;50.560;9.714;2023-07-31T09:35:48;19.80;99.90
10249;DHT22;5169;50.560;9.714;2023-07-31T09:38:14;19.80;99.90
10249;DHT22;5169;50.560;9.714;2023-07-31T09:40:46;19.90;99.90
10249;DHT22;5169;50.560;9.714;2023-07-31T09:43:13;19.90;99.90
10249;DHT22;5169;50.560;9.714;2023-07-31T09:45:43;19.90;99.90
10249;DHT22;5169;50.560;9.714;2023-07-31T09:48:18;20.00;99.90
10249;DHT22;5169;50.560;9.714;2023-07-31T09:50:48;20.20;99.90
10249;DHT22;5169;50.560;9.714;2023-07-31T09:53:15;20.40;99.90
10249;DHT22;5169;50.560;9.714;2023-07-31T09:55:41;20.40;99.90
10249;DHT22;5169;50.560;9.714;2023-07-31T09:58:09;20.20;99.90
10249;DHT22;5169;50.560;9.714;2023-07-31T10:00:41;20.00;99.90
10249;DHT22;5169;50.560;9.714;2023-07-31T10:03:10;19.80;99.90
10249;DHT22;5169;50.560;9.714;2023-07-31T10:05:39;19.60;99.90
10249;DHT22;5169;50.560;9.714;2023-07-31T10:08:06;19.50;99.90
10249;DHT22;5169;50.560;9.714;2023-07-31T10:10:32;19.50;99.90
10249;DHT22;5169;50.560;9.714;2023-07-31T10:13:01;19.30;99.90
10249;DHT22;5169;50.560;9.714;2023-07-31T10:15:30;19.10;99.90
10249;DHT22;5169;50.560;9.714;2023-07-31T10:17:58;19.00;99.90
10249;DHT22;5169;50.560;9.714;2023-07-31T10:20:24;18.90;99.90
10249;DHT22;5169;50.560;9.714;2023-07-31T10:22:56;18.80;99.90
10249;DHT22;5169;50.560;9.714;2023-07-31T10:25:24;18.60;99.90
10249;DHT22;5169;50.560;9.714;2023-07-31T10:27:52;18.50;99.90
10249;DHT22;5169;50.560;9.714;2023-07-31T10:30:22;18.50;99.90
10249;DHT22;5169;50.560;9.714;2023-07-31T10:32:48;18.40;99.90
10249;DHT22;5169;50.560;9.714;2023-07-31T10:35:17;18.20;99.90
10249;DHT22;5169;50.560;9.714;2023-07-31T10:37:49;18.20;99.90
10249;DHT22;5169;50.560;9.714;2023-07-31T10:40:23;18.20;99.90
10249;DHT22;5169;50.560;9.714;2023-07-31T10:42:56;18.30;99.90
10249;DHT22;5169;50.560;9.714;2023-07-31T10:50:37;18.50;99.90
10249;DHT22;5169;50.560;9.714;2023-07-31T10:53:03;18.60;99.90
10249;DHT22;5169;50.560;9.714;2023-07-31T10:55:40;18.50;99.90
10249;DHT22;5169;50.560;9.714;2023-07-31T10:58:13;18.50;99.90
10249;DHT22;5169;50.560;9.714;2023-07-31T11:00:43;18.50;99.90
10249;DHT22;5169;50.560;9.714;2023-07-31T11:03:19;18.40;99.90
10249;DHT22;5169;50.560;9.714;2023-07-31T11:06:03;18.30;99.90
10249;DHT22;5169;50.560;9.714;2023-07-31T11:08:31;18.20;99.90
10249;DHT22;5169;50.560;9.714;2023-07-31T11:13:54;18.30;99.90
10249;DHT22;5169;50.560;9.714;2023-07-31T11:16:24;18.40;99.90
10249;DHT22;5169;50.560;9.714;2023-07-31T11:18:51;18.40;99.90
10249;DHT22;5169;50.560;9.714;2023-07-31T11:21:21;18.30;99.90
10249;DHT22;5169;50.560;9.714;2023-07-31T11:23:49;18.40;99.90
10249;DHT22;5169;50.560;9.714;2023-07-31T11:26:18;18.40;99.90
10249;DHT22;5169;50.560;9.714;2023-07-31T11:28:47;18.40;99.90
10249;DHT22;5169;50.560;9.714;2023-07-31T11:31:13;18.30;99.90
10249;DHT22;5169;50.560;9.714;2023-07-31T11:33:39;18.20;99.90
10249;DHT22;5169;50.560;9.714;2023-07-31T11:36:17;18.20;99.90
10249;DHT22;5169;50.560;9.714;2023-07-31T11:38:46;18.30;99.90
10249;DHT22;5169;50.560;9.714;2023-07-31T11:41:14;18.40;99.90
10249;DHT22;5169;50.560;9.714;2023-07-31T11:43:43;18.50;99.90
10249;DHT22;5169;50.560;9.714;2023-07-31T11:46:09;18.50;99.90
10249;DHT22;5169;50.560;9.714;2023-07-31T11:48:36;18.50;99.90
10249;DHT22;5169;50.560;9.714;2023-07-31T11:51:08;18.50;99.90
10249;DHT22;5169;50.560;9.714;2023-07-31T11:53:47;18.50;99.90
10249;DHT22;5169;50.560;9.714;2023-07-31T11:56:17;18.50;99.90
10249;DHT22;5169;50.560;9.714;2023-07-31T11:58:46;18.50;99.90
10249;DHT22;5169;50.560;9.714;2023-07-31T12:01:14;18.50;99.90
10249;DHT22;5169;50.560;9.714;2023-07-31T12:03:43;18.40;99.90
10249;DHT22;5169;50.560;9.714;2023-07-31T12:06:14;18.20;99.90
10249;DHT22;5169;50.560;9.714;2023-07-31T12:08:42;18.30;99.90
10249;DHT22;5169;50.560;9.714;2023-07-31T12:11:09;18.30;99.90
10249;DHT22;5169;50.560;9.714;2023-07-31T12:16:56;18.30;99.90
10249;DHT22;5169;50.560;9.714;2023-07-31T12:19:22;18.20;99.90
10249;DHT22;5169;50.560;9.714;2023-07-31T12:21:49;18.30;99.90
10249;DHT22;5169;50.560;9.714;2023-07-31T12:24:14;18.20;99.90
10249;DHT22;5169;50.560;9.714;2023-07-31T12:26:51;18.40;99.90
10249;DHT22;5169;50.560;9.714;2023-07-31T12:29:21;18.40;99.90
10249;DHT22;5169;50.560;9.714;2023-07-31T12:31:46;18.50;99.90
10249;DHT22;5169;50.560;9.714;2023-07-31T12:34:21;18.50;99.90
10249;DHT22;5169;50.560;9.714;2023-07-31T12:36:49;18.60;99.90
10249;DHT22;5169;50.560;9.714;2023-07-31T12:39:15;18.60;99.90
10249;DHT22;5169;50.560;9.714;2023-07-31T12:41:46;18.70;99.90
10249;DHT22;5169;50.560;9.714;2023-07-31T12:44:12;18.90;99.90
10249;DHT22;5169;50.560;9.714;2023-07-31T12:46:40;19.00;99.90
10249;DHT22;5169;50.560;9.714;2023-07-31T12:49:08;19.00;99.90
10249;DHT22;5169;50.560;9.714;2023-07-31T12:51:37;19.10;99.90
10249;DHT22;5169;50.560;9.714;2023-07-31T12:54:05;19.10;99.90
10249;DHT22;5169;50.560;9.714;2023-07-31T12:56:31;19.20;99.90
10249;DHT22;5169;50.560;9.714;2023-07-31T12:58:57;19.40;99.90
10249;DHT22;5169;50.560;9.714;2023-07-31T13:01:22;19.40;99.90
10249;DHT22;5169;50.560;9.714;2023-07-31T13:03:48;19.50;99.90
10249;DHT22;5169;50.560;9.714;2023-07-31T13:06:20;19.50;99.90
10249;DHT22;5169;50.560;9.714;2023-07-31T13:08:56;19.50;99.90
10249;DHT22;5169;50.560;9.714;2023-07-31T13:11:23;19.50;99.90
10249;DHT22;5169;50.560;9.714;2023-07-31T13:13:49;19.50;99.90
10249;DHT22;5169;50.560;9.714;2023-07-31T13:16:19;19.60;99.90
10249;DHT22;5169;50.560;9.714;2023-07-31T13:18:45;19.60;99.90
10249;DHT22;5169;50.560;9.714;2023-07-31T13:21:10;19.70;99.90
10249;DHT22;5169;50.560;9.714;2023-07-31T13:23:41;19.80;99.90
10249;DHT22;5169;50.560;9.714;2023-07-31T13:26:09;19.90;99.90
10249;DHT22;5169;50.560;9.714;2023-07-31T13:28:35;19.90;99.90
10249;DHT22;5169;50.560;9.714;2023-07-31T13:31:00;19.90;99.90
10249;DHT22;5169;50.560;9.714;2023-07-31T13:33:29;20.00;99.90
10249;DHT22;5169;50.560;9.714;2023-07-31T13:35:54;19.90;99.90
10249;DHT22;5169;50.560;9.714;2023-07-31T13:38:20;19.90;99.90
10249;DHT22;5169;50.560;9.714;2023-07-31T13:40:46;20.00;99.90
10249;DHT22;5169;50.560;9.714;2023-07-31T13:43:11;20.00;99.90
10249;DHT22;5169;50.560;9.714;2023-07-31T13:45:45;20.10;99.90
10249;DHT22;5169;50.560;9.714;2023-07-31T13:48:11;20.20;99.90
10249;DHT22;5169;50.560;9.714;2023-07-31T13:50:44;20.20;99.90
10249;DHT22;5169;50.560;9.714;2023-07-31T13:53:09;20.30;99.90
10249;DHT22;5169;50.560;9.714;2023-07-31T13:55:35;20.40;99.90
10249;DHT22;5169;50.560;9.714;2023-07-31T13:58:00;20.30;99.90
10249;DHT22;5169;50.560;9.714;2023-07-31T14:00:34;20.30;99.90
10249;DHT22;5169;50.560;9.714;2023-07-31T14:03:10;20.20;99.90
10249;DHT22;5169;50.560;9.714;2023-07-31T14:05:36;20.20;99.90
10249;DHT22;5169;50.560;9.714;2023-07-31T14:08:06;20.10;99.90
10249;DHT22;5169;50.560;9.714;2023-07-31T14:10:32;20.10;99.90
10249;DHT22;5169;50.560;9.714;2023-07-31T14:12:57;20.10;99.90
10249;DHT22;5169;50.560;9.714;2023-07-31T14:15:23;20.20;99.90
10249;DHT22;5169;50.560;9.714;2023-07-31T14:17:48;20.20;99.90
10249;DHT22;5169;50.560;9.714;2023-07-31T14:20:20;20.20;99.90
10249;DHT22;5169;50.560;9.714;2023-07-31T14:22:45;20.20;99.90
10249;DHT22;5169;50.560;9.714;2023-07-31T14:25:11;20.30;99.90
10249;DHT22;5169;50.560;9.714;2023-07-31T14:27:37;20.50;99.90
10249;DHT22;5169;50.560;9.714;2023-07-31T14:30:09;20.50;99.90
10249;DHT22;5169;50.560;9.714;2023-07-31T14:32:37;20.50;99.90
10249;DHT22;5169;50.560;9.714;2023-07-31T14:35:05;20.50;99.90
10249;DHT22;5169;50.560;9.714;2023-07-31T14:37:42;20.60;99.90
10249;DHT22;5169;50.560;9.714;2023-07-31T14:40:08;20.70;99.90
10249;DHT22;5169;50.560;9.714;2023-07-31T14:42:35;20.90;99.90
10249;DHT22;5169;50.560;9.714;2023-07-31T14:45:02;20.80;99.90
10249;DHT22;5169;50.560;9.714;2023-07-31T14:47:33;20.80;99.90
10249;DHT22;5169;50.560;9.714;2023-07-31T14:50:01;20.70;99.90
10249;DHT22;5169;50.560;9.714;2023-07-31T14:52:35;20.70;99.90
10249;DHT22;5169;50.560;9.714;2023-07-31T14:55:08;20.60;99.90
10249;DHT22;5169;50.560;9.714;2023-07-31T14:57:37;20.50;99.90
10249;DHT22;5169;50.560;9.714;2023-07-31T15:00:10;20.60;99.90
10249;DHT22;5169;50.560;9.714;2023-07-31T15:02:44;20.50;99.90
10249;DHT22;5169;50.560;9.714;2023-07-31T15:05:10;20.50;99.90
10249;DHT22;5169;50.560;9.714;2023-07-31T15:07:35;20.50;99.90
10249;DHT22;5169;50.560;9.714;2023-07-31T15:10:02;20.50;99.90
10249;DHT22;5169;50.560;9.714;2023-07-31T15:12:30;20.60;99.90
10249;DHT22;5169;50.560;9.714;2023-07-31T15:14:59;20.60;99.90
10249;DHT22;5169;50.560;9.714;2023-07-31T15:17:35;20.50;99.90
10249;DHT22;5169;50.560;9.714;2023-07-31T15:20:07;20.50;99.90
10249;DHT22;5169;50.560;9.714;2023-07-31T15:22:33;20.30;99.90
10249;DHT22;5169;50.560;9.714;2023-07-31T15:24:59;20.30;99.90
10249;DHT22;5169;50.560;9.714;2023-07-31T15:27:27;20.20;99.90
10249;DHT22;5169;50.560;9.714;2023-07-31T15:29:56;20.10;99.90
10249;DHT22;5169;50.560;9.714;2023-07-31T15:32:22;20.10;99.90
10249;DHT22;5169;50.560;9.714;2023-07-31T15:34:48;20.00;99.90
10249;DHT22;5169;50.560;9.714;2023-07-31T15:37:14;19.90;99.90
10249;DHT22;5169;50.560;9.714;2023-07-31T15:39:40;20.00;99.90
10249;DHT22;5169;50.560;9.714;2023-07-31T15:42:12;20.00;99.90
10249;DHT22;5169;50.560;9.714;2023-07-31T15:44:38;20.00;99.90
10249;DHT22;5169;50.560;9.714;2023-07-31T15:47:10;20.10;99.90
10249;DHT22;5169;50.560;9.714;2023-07-31T15:49:38;20.10;99.90
10249;DHT22;5169;50.560;9.714;2023-07-31T15:52:08;20.10;99.90
10249;DHT22;5169;50.560;9.714;2023-07-31T15:54:33;20.20;99.90
10249;DHT22;5169;50.560;9.714;2023-07-31T15:56:59;20.10;99.90
10249;DHT22;5169;50.560;9.714;2023-07-31T15:59:24;20.20;99.90
10249;DHT22;5169;50.560;9.714;2023-07-31T16:02:00;20.10;99.90
10249;DHT22;5169;50.560;9.714;2023-07-31T16:04:25;20.10;99.90
10249;DHT22;5169;50.560;9.714;2023-07-31T16:06:56;20.00;99.90
10249;DHT22;5169;50.560;9.714;2023-07-31T16:09:21;19.90;99.90